createdAt,value
2019-05-12T00:00:29.810Z,100185.71
2019-05-12T00:04:31.988Z,100193.16
2019-05-12T00:08:34.072Z,100191.30
2019-05-12T00:12:38.427Z,100190.05
2019-05-12T00:16:40.195Z,100199.11
2019-05-12T00:20:42.404Z,100197.77
2019-05-12T00:24:44.766Z,100209.42
2019-05-12T00:28:48.227Z,100205.94
2019-05-12T00:32:50.456Z,100210.06
2019-05-12T00:36:53.264Z,100208.73
2019-05-12T00:40:55.322Z,100217.98
2019-05-12T00:44:58.532Z,100221.44
2019-05-12T00:49:00.983Z,100235.47
2019-05-12T00:53:03.329Z,100237.45
2019-05-12T00:57:07.786Z,100241.72
2019-05-12T01:01:10.151Z,100246.81
2019-05-12T01:05:12.792Z,100249.76
2019-05-12T01:09:17.497Z,100257.27
2019-05-12T01:13:19.081Z,100266.28
2019-05-12T01:17:21.220Z,100268.86
2019-05-12T01:21:23.512Z,100276.28
2019-05-12T01:25:25.910Z,100289.52
2019-05-12T01:29:28.288Z,100287.85
2019-05-12T01:33:30.635Z,100299.00
2019-05-12T01:37:32.851Z,100315.64
2019-05-12T01:41:34.920Z,100319.75
2019-05-12T01:45:38.043Z,100328.97
2019-05-12T01:49:40.392Z,100337.09
2019-05-12T01:53:42.613Z,100334.69
2019-05-12T01:57:44.732Z,100342.25
2019-05-12T02:01:48.820Z,100347.97
2019-05-12T02:05:53.770Z,100358.41
2019-05-12T02:09:58.427Z,100370.53
2019-05-12T02:14:00.115Z,100375.78
2019-05-12T02:18:02.435Z,100388.38
2019-05-12T02:22:04.737Z,100391.67
2019-05-12T02:26:08.393Z,100391.09
2019-05-12T02:30:11.300Z,100405.04
2019-05-12T02:34:15.794Z,100419.11
2019-05-12T02:38:17.790Z,100415.15
2019-05-12T02:42:20.108Z,100420.73
2019-05-12T02:46:25.193Z,100428.36
2019-05-12T02:50:36.660Z,100433.84
2019-05-12T02:54:51.917Z,100445.45
2019-05-12T02:58:45.703Z,100455.04
2019-05-12T03:02:50.261Z,100462.92
2019-05-12T03:06:54.948Z,100462.18
2019-05-12T03:10:57.455Z,100479.16
2019-05-12T03:14:59.871Z,100478.08
2019-05-12T03:19:04.973Z,100494.88
2019-05-12T03:23:06.908Z,100495.51
2019-05-12T03:27:09.625Z,100503.73
2019-05-12T03:31:22.176Z,100507.27
2019-05-12T03:35:17.441Z,100520.45
2019-05-12T03:39:19.636Z,100535.09
2019-05-12T03:43:24.190Z,100533.68
2019-05-12T03:47:25.826Z,100537.53
2019-05-12T03:51:28.343Z,100552.08
2019-05-12T03:55:36.396Z,100561.00
2019-05-12T03:59:35.269Z,100566.59
2019-05-12T04:03:37.574Z,100575.43
2019-05-12T04:07:39.746Z,100574.33
2019-05-12T04:11:44.422Z,100578.58
2019-05-12T04:15:46.192Z,100587.88
2019-05-12T04:19:48.336Z,100592.27
2019-05-12T04:23:54.815Z,100589.23
2019-05-12T04:27:56.222Z,100601.80
2019-05-12T04:31:58.509Z,100611.98
2019-05-12T04:36:05.559Z,100615.03
2019-05-12T04:40:08.205Z,100627.75
2019-05-12T04:44:10.429Z,100642.27
2019-05-12T04:48:15.556Z,100646.63
2019-05-12T04:52:16.543Z,100653.41
2019-05-12T04:56:20.632Z,100661.53
2019-05-12T05:00:25.445Z,100674.62
2019-05-12T05:04:26.437Z,100678.34
2019-05-12T05:08:29.681Z,100690.97
2019-05-12T05:12:34.593Z,100698.11
2019-05-12T05:16:36.686Z,100712.38
2019-05-12T05:20:38.962Z,100712.86
2019-05-12T05:24:41.198Z,100717.59
2019-05-12T05:28:45.155Z,100721.09
2019-05-12T05:32:47.259Z,100740.11
2019-05-12T05:36:51.123Z,100738.04
2019-05-12T05:40:54.296Z,100749.31
2019-05-12T05:44:56.670Z,100763.73
2019-05-12T05:48:59.035Z,100769.20
2019-05-12T05:53:03.538Z,100775.48
2019-05-12T05:57:06.195Z,100780.69
2019-05-12T06:01:08.571Z,100792.19
2019-05-12T06:05:10.809Z,100797.62
2019-05-12T06:09:14.159Z,100806.27
2019-05-12T06:13:16.306Z,100811.58
2019-05-12T06:17:18.426Z,100815.44
2019-05-12T06:21:20.830Z,100824.63
2019-05-12T06:25:26.406Z,100825.46
2019-05-12T06:29:28.087Z,100839.05
2019-05-12T06:33:31.436Z,100849.48
2019-05-12T06:37:34.300Z,100857.84
2019-05-12T06:41:36.422Z,100866.53
2019-05-12T06:45:42.567Z,100869.59
2019-05-12T06:49:43.990Z,100884.27
2019-05-12T06:53:46.178Z,100895.11
2019-05-12T06:57:50.252Z,100897.08
2019-05-12T07:01:58.348Z,100899.18
2019-05-12T07:05:56.657Z,100901.98
2019-05-12T07:10:10.371Z,100909.53
2019-05-12T07:14:07.809Z,100924.84
2019-05-12T07:18:10.565Z,100943.23
2019-05-12T07:22:21.936Z,100949.78
2019-05-12T07:26:19.511Z,100945.17
2019-05-12T07:30:31.750Z,100955.98
2019-05-12T07:34:33.394Z,100957.92
2019-05-12T07:38:37.073Z,100970.94
2019-05-12T07:42:40.269Z,100979.98
2019-05-12T07:46:45.625Z,100994.09
2019-05-12T07:50:50.221Z,100999.03
2019-05-12T07:54:52.935Z,101011.66
2019-05-12T07:58:56.988Z,101022.16
2019-05-12T08:02:58.083Z,101018.98
2019-05-12T08:07:00.456Z,101028.47
2019-05-12T08:11:04.498Z,101034.25
2019-05-12T08:15:09.839Z,101033.27
2019-05-12T08:19:14.836Z,101036.28
2019-05-12T08:23:16.219Z,101040.52
2019-05-12T08:27:18.357Z,101049.48
2019-05-12T08:31:23.616Z,101060.64
2019-05-12T08:35:29.434Z,101067.71
2019-05-12T08:39:28.889Z,101071.64
2019-05-12T08:43:31.128Z,101073.70
2019-05-12T08:47:35.609Z,101087.59
2019-05-12T08:51:37.241Z,101101.20
2019-05-12T08:55:39.359Z,101107.98
2019-05-12T09:00:09.076Z,101105.11
2019-05-12T09:04:17.343Z,101114.14
2019-05-12T09:08:16.289Z,101120.45
2019-05-12T09:12:18.585Z,101124.78
2019-05-12T09:16:21.368Z,101134.41
2019-05-12T09:20:24.246Z,101143.56
2019-05-12T09:24:27.433Z,101155.30
2019-05-12T09:28:43.618Z,101159.17
2019-05-12T09:32:34.003Z,101173.88
2019-05-12T09:36:36.584Z,101170.59
2019-05-12T09:40:39.032Z,101166.03
2019-05-12T09:44:42.005Z,101165.76
2019-05-12T09:48:51.904Z,101179.19
2019-05-12T09:52:52.782Z,101186.59
2019-05-12T09:56:57.799Z,101175.58
2019-05-12T10:00:56.941Z,101189.73
2019-05-12T10:05:00.859Z,101203.89
2019-05-12T10:09:03.570Z,101191.92
2019-05-12T10:13:06.008Z,101207.34
2019-05-12T10:17:08.206Z,101200.95
2019-05-12T10:21:15.552Z,101206.03
2019-05-12T10:25:14.635Z,101208.38
2019-05-12T10:29:20.584Z,101219.08
2019-05-12T10:33:20.683Z,101229.45
2019-05-12T10:37:25.293Z,101238.45
2019-05-12T10:41:27.269Z,101242.78
2019-05-12T10:45:31.033Z,101251.31
2019-05-12T10:49:33.786Z,101248.73
2019-05-12T10:53:36.170Z,101255.89
2019-05-12T10:57:38.459Z,101257.98
2019-05-12T11:01:47.237Z,101262.44
2019-05-12T11:05:45.487Z,101270.84
2019-05-12T11:09:47.751Z,101279.29
2019-05-12T11:13:50.472Z,101275.19
2019-05-12T11:18:10.282Z,101280.16
2019-05-12T11:22:13.929Z,101289.44
2019-05-12T11:26:16.029Z,101297.87
2019-05-12T11:30:18.352Z,101310.11
2019-05-12T11:34:20.797Z,101312.17
2019-05-12T11:38:24.406Z,101317.03
2019-05-12T11:42:26.813Z,101322.63
2019-05-12T11:46:29.121Z,101337.59
2019-05-12T11:50:32.605Z,101340.47
2019-05-12T11:54:34.861Z,101346.22
2019-05-12T11:58:41.170Z,101353.45
2019-05-12T12:02:40.831Z,101355.84
2019-05-12T12:06:43.852Z,101366.16
2019-05-12T12:10:49.050Z,101364.12
2019-05-12T12:14:50.605Z,101377.57
2019-05-12T12:19:02.238Z,101367.14
2019-05-12T12:23:00.233Z,101380.22
2019-05-12T12:27:00.532Z,101384.22
2019-05-12T12:31:05.376Z,101392.77
2019-05-12T12:35:10.988Z,101393.64
2019-05-12T12:39:13.176Z,101408.50
2019-05-12T12:43:16.869Z,101402.51
2019-05-12T12:47:18.733Z,101401.92
2019-05-12T12:51:20.625Z,101421.44
2019-05-12T12:55:23.398Z,101417.81
2019-05-12T12:59:25.742Z,101432.63
2019-05-12T13:03:29.789Z,101447.97
2019-05-12T13:07:33.386Z,101454.22
2019-05-12T13:11:35.862Z,101461.59
2019-05-12T13:15:37.947Z,101469.58
2019-05-12T13:19:48.934Z,101480.89
2019-05-12T13:23:51.095Z,101484.78
2019-05-12T13:27:53.668Z,101489.21
2019-05-12T13:31:56.180Z,101485.85
2019-05-12T13:35:58.422Z,101491.75
2019-05-12T13:40:01.916Z,101498.41
2019-05-12T13:44:04.420Z,101512.44
2019-05-12T13:48:09.567Z,101510.42
2019-05-12T13:52:10.550Z,101508.55
2019-05-12T13:56:13.660Z,101517.00
2019-05-12T14:00:16.447Z,101517.12
2019-05-12T14:04:22.298Z,101521.37
2019-05-12T14:08:23.823Z,101536.02
2019-05-12T14:12:26.221Z,101539.33
2019-05-12T14:16:28.343Z,101546.70
2019-05-12T14:20:34.436Z,101545.67
2019-05-12T14:24:41.899Z,101558.41
2019-05-12T14:28:45.513Z,101554.79
2019-05-12T14:32:44.308Z,101555.64
2019-05-12T14:36:48.773Z,101567.92
2019-05-12T14:40:54.446Z,101574.83
2019-05-12T14:44:57.420Z,101579.67
2019-05-12T14:48:59.495Z,101585.98
2019-05-12T14:53:03.552Z,101587.04
2019-05-12T14:57:05.861Z,101599.00
2019-05-12T15:01:08.103Z,101593.25
2019-05-12T15:05:13.684Z,101606.27
2019-05-12T15:09:19.600Z,101619.61
2019-05-12T15:13:18.890Z,101618.47
2019-05-12T15:17:24.161Z,101621.34
2019-05-12T15:21:27.393Z,101634.45
2019-05-12T15:25:35.260Z,101641.61
2019-05-12T15:29:33.761Z,101630.66
2019-05-12T15:33:36.097Z,101649.18
2019-05-12T15:37:39.069Z,101653.87
2019-05-12T15:41:42.110Z,101653.63
2019-05-12T15:45:49.111Z,101656.18
2019-05-12T15:49:48.391Z,101657.78
2019-05-12T15:53:50.646Z,101667.69
2019-05-12T15:57:52.964Z,101670.58
2019-05-12T16:02:08.640Z,101673.13
2019-05-12T16:06:01.294Z,101684.22
2019-05-12T16:10:04.321Z,101687.22
2019-05-12T16:14:07.590Z,101695.56
2019-05-12T16:18:10.274Z,101696.11
2019-05-12T16:22:13.926Z,101698.70
2019-05-12T16:26:16.326Z,101701.11
2019-05-12T16:30:20.181Z,101697.72
2019-05-12T16:34:22.602Z,101708.94
2019-05-12T16:38:24.776Z,101711.28
2019-05-12T16:42:27.061Z,101721.77
2019-05-12T16:46:29.468Z,101718.73
2019-05-12T16:50:34.288Z,101725.97
2019-05-12T16:54:35.574Z,101730.39
2019-05-12T16:58:37.797Z,101734.02
2019-05-12T17:02:42.203Z,101740.34
2019-05-12T17:06:47.088Z,101742.31
2019-05-12T17:10:58.334Z,101752.04
2019-05-12T17:14:53.324Z,101754.19
2019-05-12T17:19:00.092Z,101750.86
2019-05-12T17:23:00.556Z,101757.73
2019-05-12T17:27:03.651Z,101762.56
2019-05-12T17:31:06.952Z,101768.97
2019-05-12T17:35:10.260Z,101775.23
2019-05-12T17:39:13.823Z,101786.48
2019-05-12T17:43:16.240Z,101790.78
2019-05-12T17:47:21.416Z,101793.91
2019-05-12T17:51:26.810Z,101803.03
2019-05-12T17:55:26.802Z,101800.14
2019-05-12T17:59:29.562Z,101811.09
2019-05-12T18:03:34.150Z,101824.23
2019-05-12T18:07:35.848Z,101832.36
2019-05-12T18:11:38.030Z,101830.52
2019-05-12T18:15:40.304Z,101833.69
2019-05-12T18:19:44.438Z,101841.81
2019-05-12T18:23:47.012Z,101849.38
2019-05-12T18:27:50.951Z,101854.66
2019-05-12T18:31:55.521Z,101862.05
2019-05-12T18:35:57.289Z,101865.86
2019-05-12T18:39:59.613Z,101868.09
2019-05-12T18:44:04.283Z,101877.24
2019-05-12T18:48:10.097Z,101879.91
2019-05-12T18:52:10.155Z,101883.86
2019-05-12T18:56:19.753Z,101888.60
2019-05-12T19:00:20.463Z,101889.16
2019-05-12T19:04:22.629Z,101890.45
2019-05-12T19:08:24.809Z,101901.73
2019-05-12T19:12:32.238Z,101901.46
2019-05-12T19:16:30.958Z,101904.68
2019-05-12T19:20:36.100Z,101906.11
2019-05-12T19:24:38.698Z,101910.28
2019-05-12T19:28:44.277Z,101918.77
2019-05-12T19:32:45.280Z,101928.42
2019-05-12T19:36:49.513Z,101934.12
2019-05-12T19:40:56.233Z,101946.14
2019-05-12T19:44:59.324Z,101951.56
2019-05-12T19:48:59.255Z,101951.72
2019-05-12T19:53:03.997Z,101953.02
2019-05-12T19:57:05.662Z,101951.86
2019-05-12T20:01:08.007Z,101962.02
2019-05-12T20:05:10.215Z,101964.30
2019-05-12T20:09:14.675Z,101970.33
2019-05-12T20:13:16.319Z,101974.17
2019-05-12T20:17:18.449Z,101976.19
2019-05-12T20:21:26.012Z,101980.08
2019-05-12T20:25:24.637Z,101984.06
2019-05-12T20:29:33.168Z,101988.96
2019-05-12T20:33:30.459Z,101989.10
2019-05-12T20:37:33.678Z,101994.81
2019-05-12T20:41:37.123Z,102002.54
2019-05-12T20:45:40.626Z,101994.20
2019-05-12T20:49:51.129Z,101993.80
2019-05-12T20:53:47.445Z,101993.33
2019-05-12T20:57:53.626Z,101997.34
2019-05-12T21:01:54.143Z,102002.34
2019-05-12T21:06:00.211Z,102004.25
2019-05-12T21:10:00.378Z,102017.38
2019-05-12T21:14:09.811Z,102016.33
2019-05-12T21:18:07.484Z,102019.00
2019-05-12T21:22:09.767Z,102018.59
2019-05-12T21:26:12.053Z,102030.45
2019-05-12T21:30:15.459Z,102021.22
2019-05-12T21:34:21.186Z,102031.00
2019-05-12T21:38:27.487Z,102035.25
2019-05-12T21:42:25.682Z,102046.19
2019-05-12T21:46:27.868Z,102045.59
2019-05-12T21:50:38.058Z,102051.24
2019-05-12T21:54:37.751Z,102055.35
2019-05-12T21:58:45.522Z,102066.22
2019-05-12T22:02:42.917Z,102061.51
2019-05-12T22:06:45.465Z,102065.59
2019-05-12T22:10:48.057Z,102068.30
2019-05-12T22:14:50.536Z,102070.93
2019-05-12T22:18:58.629Z,102068.78
2019-05-12T22:23:00.531Z,102077.19
2019-05-12T22:27:04.938Z,102082.89
2019-05-12T22:31:06.108Z,102088.67
2019-05-12T22:35:13.184Z,102099.35
2019-05-12T22:39:14.333Z,102093.44
2019-05-12T22:43:17.025Z,102090.78
2019-05-12T22:47:19.474Z,102087.49
2019-05-12T22:51:24.486Z,102090.25
2019-05-12T22:55:32.394Z,102086.70
2019-05-12T22:59:34.321Z,102092.97
2019-05-12T23:03:34.961Z,102090.81
2019-05-12T23:07:37.651Z,102089.99
2019-05-12T23:11:40.273Z,102101.24
2019-05-12T23:15:45.281Z,102097.62
2019-05-12T23:19:51.528Z,102097.09
2019-05-12T23:23:57.231Z,102092.07
2019-05-12T23:28:00.237Z,102094.45
2019-05-12T23:32:00.647Z,102098.23
2019-05-12T23:36:04.117Z,102091.83
2019-05-12T23:40:11.511Z,102096.17
2019-05-12T23:44:13.414Z,102096.68
2019-05-12T23:48:15.791Z,102100.76
2019-05-12T23:52:18.109Z,102109.73
2019-05-12T23:56:20.902Z,102108.42
